Time;durP1;ratioP1;P1;durP2;ratioP2;P2;SDS_P1;SDS_P2;PMS_P1;PMS_P2;Temp;Humidity;BMP_temperature;BMP_pressure;BME280_temperature;BME280_humidity;BME280_pressure;Samples;Min_cycle;Max_cycle;Signal;HPM_P1;HPM_P2
2022/07/10 00:00:02;;;;;;;0.52;0.52;;;19.40;82.50;;;;;;5109586;28;20214;-62
2022/07/10 00:02:39;;;;;;;0.60;0.60;;;19.30;82.50;;;;;;5110619;28;20571;-62
2022/07/10 00:05:08;;;;;;;0.50;0.50;;;19.30;82.60;;;;;;5112190;28;20224;-62
2022/07/10 00:07:35;;;;;;;0.70;0.70;;;19.30;82.70;;;;;;5112535;28;20228;-61
2022/07/10 00:10:02;;;;;;;0.95;0.65;;;19.30;82.80;;;;;;5110927;27;20218;-62
2022/07/10 00:12:31;;;;;;;0.60;0.60;;;19.30;83.00;;;;;;5105239;28;20226;-62
2022/07/10 00:14:58;;;;;;;0.80;0.63;;;19.30;83.10;;;;;;5110081;28;20303;-62
2022/07/10 00:17:25;;;;;;;0.80;0.70;;;19.30;83.30;;;;;;5111685;28;20275;-62
2022/07/10 00:19:52;;;;;;;0.93;0.85;;;19.30;83.50;;;;;;5105879;28;21688;-62
2022/07/10 00:22:19;;;;;;;1.92;0.70;;;19.30;83.70;;;;;;5111884;28;20196;-62
2022/07/10 00:24:46;;;;;;;1.10;0.75;;;19.30;83.90;;;;;;5108511;28;20272;-62
2022/07/10 00:27:13;;;;;;;0.90;0.70;;;19.20;84.10;;;;;;5111527;28;20195;-62
2022/07/10 00:29:41;;;;;;;0.88;0.57;;;19.20;84.20;;;;;;5110745;28;20501;-62
2022/07/10 00:32:09;;;;;;;0.77;0.77;;;19.20;84.40;;;;;;5106937;28;20239;-62
2022/07/10 00:34:36;;;;;;;0.65;0.60;;;19.20;84.50;;;;;;5103892;28;20291;-62
2022/07/10 00:37:04;;;;;;;1.45;0.98;;;19.20;84.70;;;;;;5112165;27;20207;-62
2022/07/10 00:39:31;;;;;;;0.60;0.60;;;19.20;84.90;;;;;;5109243;28;20200;-61
2022/07/10 00:42:07;;;;;;;0.60;0.60;;;19.20;85.00;;;;;;5111320;28;20203;-62
2022/07/10 00:44:35;;;;;;;1.55;0.70;;;19.20;85.20;;;;;;5110061;28;20196;-63
2022/07/10 00:47:05;;;;;;;0.50;0.50;;;19.10;85.50;;;;;;5099856;28;20200;-62
2022/07/10 00:49:32;;;;;;;0.73;0.73;;;19.10;85.60;;;;;;5110008;28;20358;-62
2022/07/10 00:52:01;;;;;;;1.40;0.80;;;19.10;85.70;;;;;;5111163;28;20233;-64
2022/07/10 00:54:30;;;;;;;0.57;0.57;;;19.10;85.70;;;;;;5103116;28;20278;-64
2022/07/10 00:56:57;;;;;;;0.82;0.80;;;19.10;85.80;;;;;;5109240;28;20238;-60
2022/07/10 00:59:26;;;;;;;0.50;0.50;;;19.00;85.80;;;;;;5110528;28;20188;-60
2022/07/10 01:01:53;;;;;;;1.00;0.65;;;19.00;85.90;;;;;;5111098;28;20196;-60
2022/07/10 01:04:22;;;;;;;0.90;0.70;;;19.00;86.00;;;;;;5107766;28;20239;-60
2022/07/10 01:06:49;;;;;;;1.15;0.80;;;19.10;86.10;;;;;;5111278;28;20366;-60
2022/07/10 01:09:16;;;;;;;1.67;0.93;;;19.10;86.00;;;;;;5109503;28;20282;-59
2022/07/10 01:11:43;;;;;;;1.45;0.80;;;19.10;86.10;;;;;;5110493;28;20298;-60
2022/07/10 01:14:11;;;;;;;0.90;0.73;;;19.10;86.20;;;;;;5109788;28;20710;-60
2022/07/10 01:16:38;;;;;;;0.75;0.75;;;19.00;86.30;;;;;;5106828;28;20188;-59
2022/07/10 01:19:06;;;;;;;0.50;0.50;;;19.00;86.50;;;;;;5102737;28;20657;-59
2022/07/10 01:21:36;;;;;;;0.95;0.70;;;19.00;86.60;;;;;;5110115;28;20718;-60
2022/07/10 01:24:06;;;;;;;0.70;0.70;;;19.00;86.50;;;;;;5107326;28;20626;-60
2022/07/10 01:26:34;;;;;;;1.10;0.90;;;19.00;86.60;;;;;;5100148;28;20303;-59
2022/07/10 01:29:04;;;;;;;1.55;0.70;;;19.00;86.70;;;;;;5108877;28;20223;-58
2022/07/10 01:31:31;;;;;;;1.40;0.70;;;19.00;86.80;;;;;;5109234;28;20589;-59
2022/07/10 01:34:00;;;;;;;0.60;0.60;;;19.00;86.80;;;;;;5109381;28;20679;-58
2022/07/10 01:36:30;;;;;;;0.73;0.70;;;19.00;86.90;;;;;;5110431;28;20573;-58
2022/07/10 01:38:59;;;;;;;1.30;0.80;;;19.00;86.90;;;;;;5106486;28;20240;-58
2022/07/10 01:41:27;;;;;;;0.55;0.55;;;19.00;87.10;;;;;;5110265;28;20234;-58
2022/07/10 01:43:54;;;;;;;0.52;0.52;;;19.00;87.90;;;;;;5107763;28;20280;-58
2022/07/10 01:46:22;;;;;;;0.98;0.60;;;18.90;87.20;;;;;;5110072;28;20360;-58
2022/07/10 01:48:49;;;;;;;0.73;0.65;;;18.90;87.40;;;;;;5093966;28;20265;-58
2022/07/10 01:51:16;;;;;;;0.70;0.70;;;18.90;87.60;;;;;;5109367;28;20599;-60
2022/07/10 01:53:44;;;;;;;0.57;0.57;;;18.90;87.70;;;;;;5108362;28;20604;-59
2022/07/10 01:56:13;;;;;;;0.63;0.63;;;18.80;87.80;;;;;;5108784;28;20241;-59
2022/07/10 01:58:41;;;;;;;1.63;0.80;;;18.80;87.90;;;;;;5107841;28;20647;-59
2022/07/10 02:01:08;;;;;;;2.67;0.68;;;18.80;88.10;;;;;;5106511;28;20223;-58
2022/07/10 02:06:20;;;;;;;0.60;0.60;;;18.80;88.40;;;;;;5096590;28;20544;-59
2022/07/10 02:08:47;;;;;;;0.55;0.55;;;18.80;88.50;;;;;;5094727;28;20227;-59
2022/07/10 02:11:16;;;;;;;3.72;0.90;;;18.80;88.70;;;;;;5098971;28;20252;-59
2022/07/10 02:13:43;;;;;;;1.30;0.90;;;18.80;88.90;;;;;;5108360;28;20242;-59
2022/07/10 02:16:10;;;;;;;1.00;0.82;;;18.80;89.10;;;;;;5096409;28;20295;-59
2022/07/10 02:18:38;;;;;;;0.63;0.63;;;18.80;89.10;;;;;;5106006;28;20200;-59
2022/07/10 02:21:06;;;;;;;3.88;0.90;;;18.80;89.30;;;;;;5109172;28;20280;-59
2022/07/10 02:23:33;;;;;;;3.30;0.82;;;18.80;89.70;;;;;;5108203;28;20659;-58
2022/07/10 02:26:01;;;;;;;0.95;0.80;;;18.80;89.90;;;;;;5104612;28;20199;-59
2022/07/10 02:28:29;;;;;;;0.70;0.70;;;18.70;90.00;;;;;;5108970;28;20195;-59
2022/07/10 02:30:56;;;;;;;2.22;0.82;;;18.70;90.20;;;;;;5109028;28;20196;-60
2022/07/10 02:33:23;;;;;;;1.55;0.70;;;18.60;90.20;;;;;;5105098;28;20707;-59
2022/07/10 02:35:50;;;;;;;2.00;0.95;;;18.60;90.30;;;;;;5096239;28;20273;-60
2022/07/10 02:38:17;;;;;;;1.48;0.77;;;18.60;90.50;;;;;;5109182;28;20200;-59
2022/07/10 02:40:44;;;;;;;2.75;0.70;;;18.60;90.50;;;;;;5105130;28;20299;-57
2022/07/10 02:43:11;;;;;;;1.38;0.95;;;18.60;90.60;;;;;;5108679;28;20563;-59
2022/07/10 02:45:39;;;;;;;2.03;0.90;;;18.60;90.70;;;;;;5107866;28;20199;-59
2022/07/10 02:48:06;;;;;;;0.73;0.70;;;18.60;90.70;;;;;;5098279;28;20216;-59
2022/07/10 02:50:33;;;;;;;1.52;0.90;;;18.60;90.70;;;;;;5109155;28;20224;-59
2022/07/10 02:53:00;;;;;;;1.30;0.70;;;18.50;90.70;;;;;;5087955;28;20208;-59
2022/07/10 02:55:27;;;;;;;1.25;0.60;;;18.50;90.70;;;;;;5104935;28;20659;-59
2022/07/10 02:57:55;;;;;;;0.70;0.60;;;18.50;90.70;;;;;;5108631;28;20246;-58
2022/07/10 03:00:22;;;;;;;0.60;0.52;;;18.40;90.70;;;;;;5091389;28;20234;-58
2022/07/10 03:02:50;;;;;;;0.68;0.65;;;18.40;90.80;;;;;;5093624;28;20198;-59
2022/07/10 03:05:17;;;;;;;0.68;0.60;;;18.50;91.00;;;;;;5109506;28;20590;-58
2022/07/10 03:07:44;;;;;;;1.13;0.80;;;18.40;91.00;;;;;;5109286;28;20253;-58
2022/07/10 03:10:11;;;;;;;3.25;0.90;;;18.40;91.30;;;;;;5108413;28;20220;-58
2022/07/10 03:12:39;;;;;;;1.38;0.60;;;18.40;91.40;;;;;;5108590;28;20655;-58
2022/07/10 03:15:07;;;;;;;1.88;0.80;;;18.30;91.60;;;;;;5108972;28;20224;-58
2022/07/10 03:17:35;;;;;;;0.90;0.60;;;18.30;91.80;;;;;;5106055;28;20204;-60
2022/07/10 03:20:04;;;;;;;0.98;0.57;;;18.20;91.90;;;;;;5106245;28;20191;-58
2022/07/10 03:22:32;;;;;;;0.82;0.60;;;18.30;92.10;;;;;;5112348;28;20219;-59
2022/07/10 03:24:59;;;;;;;0.60;0.50;;;18.20;92.20;;;;;;5111172;28;20202;-61
2022/07/10 03:27:26;;;;;;;1.13;0.70;;;18.20;92.30;;;;;;5111476;28;20231;-60
2022/07/10 03:29:53;;;;;;;1.15;0.60;;;18.20;92.40;;;;;;5111925;28;20211;-60
2022/07/10 03:32:20;;;;;;;1.73;0.80;;;18.20;92.60;;;;;;5111707;28;20280;-60
2022/07/10 03:34:47;;;;;;;0.88;0.70;;;18.20;92.80;;;;;;5106830;28;20287;-60
2022/07/10 03:37:15;;;;;;;0.95;0.60;;;18.20;92.90;;;;;;5109210;28;20382;-59
2022/07/10 03:39:42;;;;;;;1.55;0.75;;;18.20;93.10;;;;;;5111310;28;20283;-59
2022/07/10 03:42:09;;;;;;;0.93;0.60;;;18.20;93.30;;;;;;5112037;28;20698;-59
2022/07/10 03:44:36;;;;;;;0.57;0.52;;;18.20;93.70;;;;;;5101178;28;20866;-60
2022/07/10 03:47:04;;;;;;;2.95;0.93;;;18.20;93.50;;;;;;5112098;28;20206;-60
2022/07/10 03:49:32;;;;;;;0.90;0.82;;;18.20;93.80;;;;;;5111988;28;20257;-60
2022/07/10 03:52:00;;;;;;;0.82;0.82;;;18.10;93.90;;;;;;5112378;28;20192;-60
2022/07/10 03:54:29;;;;;;;2.22;0.80;;;18.10;94.00;;;;;;5110144;28;20283;-59
2022/07/10 03:59:41;;;;;;;0.70;0.68;;;18.10;94.30;;;;;;5111786;28;20251;-59
2022/07/10 04:02:08;;;;;;;0.93;0.70;;;18.10;94.40;;;;;;5112158;28;20261;-59
2022/07/10 04:04:35;;;;;;;0.93;0.80;;;18.10;94.50;;;;;;5106610;28;20228;-59
2022/07/10 04:07:03;;;;;;;1.08;0.70;;;18.00;94.60;;;;;;5109044;28;20674;-60
2022/07/10 04:09:32;;;;;;;2.17;0.70;;;18.10;94.70;;;;;;5110329;28;20192;-60
2022/07/10 04:11:59;;;;;;;1.15;0.90;;;18.00;94.80;;;;;;5111523;28;20270;-60
2022/07/10 04:14:26;;;;;;;1.42;0.77;;;18.10;95.00;;;;;;5106306;28;20213;-60
2022/07/10 04:16:53;;;;;;;0.93;0.70;;;18.00;95.00;;;;;;5095846;28;20291;-60
2022/07/10 04:19:21;;;;;;;1.85;0.80;;;18.00;95.10;;;;;;5106865;28;20283;-60
2022/07/10 04:21:48;;;;;;;1.73;0.93;;;18.00;95.20;;;;;;5107095;28;20310;-60
2022/07/10 04:24:15;;;;;;;0.60;0.60;;;18.10;95.30;;;;;;5104692;28;20188;-60
2022/07/10 04:26:44;;;;;;;1.27;0.60;;;18.10;95.30;;;;;;5112057;28;20675;-60
2022/07/10 04:29:11;;;;;;;0.73;0.60;;;18.10;95.30;;;;;;5110734;28;20388;-60
2022/07/10 04:31:38;;;;;;;2.03;0.80;;;18.20;95.40;;;;;;5099858;28;20311;-60
2022/07/10 04:34:05;;;;;;;0.93;0.80;;;18.20;95.40;;;;;;5100516;28;20212;-60
2022/07/10 04:36:32;;;;;;;0.90;0.50;;;18.20;95.50;;;;;;5105417;28;20235;-60
2022/07/10 04:38:59;;;;;;;1.52;0.70;;;18.20;95.50;;;;;;5108352;28;20265;-60
2022/07/10 04:41:26;;;;;;;0.70;0.70;;;18.20;95.50;;;;;;5111079;28;20230;-61
2022/07/10 04:43:54;;;;;;;1.92;0.82;;;18.20;95.50;;;;;;5108579;28;20737;-60
2022/07/10 04:46:21;;;;;;;0.55;0.55;;;18.20;95.60;;;;;;5111545;28;20215;-59
2022/07/10 04:48:48;;;;;;;1.17;0.73;;;18.20;95.60;;;;;;5110670;28;20298;-59
2022/07/10 04:51:15;;;;;;;0.90;0.70;;;18.20;95.70;;;;;;5110454;28;20623;-59
2022/07/10 04:53:42;;;;;;;0.85;0.85;;;18.20;95.70;;;;;;5107082;28;20265;-59
2022/07/10 04:56:09;;;;;;;0.80;0.80;;;18.20;95.70;;;;;;5110634;28;20206;-59
2022/07/10 04:58:36;;;;;;;0.73;0.63;;;18.30;95.90;;;;;;5100386;28;20694;-59
2022/07/10 05:01:05;;;;;;;1.38;0.98;;;18.30;95.90;;;;;;5110983;28;20251;-59
2022/07/10 05:03:32;;;;;;;0.68;0.55;;;18.30;96.00;;;;;;5110077;28;20200;-59
2022/07/10 05:05:59;;;;;;;0.47;0.47;;;18.30;96.00;;;;;;5110879;28;20197;-60
2022/07/10 05:08:26;;;;;;;1.00;0.70;;;18.30;96.30;;;;;;5110388;28;20279;-60
2022/07/10 05:10:53;;;;;;;0.60;0.60;;;18.40;96.10;;;;;;5106697;28;20200;-60
2022/07/10 05:13:20;;;;;;;5.25;0.60;;;18.40;96.10;;;;;;5100859;28;20228;-60
2022/07/10 05:15:47;;;;;;;1.50;0.60;;;18.40;96.10;;;;;;5108743;28;20203;-60
2022/07/10 05:18:16;;;;;;;1.50;0.82;;;18.50;96.10;;;;;;5110340;28;20278;-59
2022/07/10 05:20:44;;;;;;;1.55;0.60;;;18.50;96.10;;;;;;5109435;28;20223;-59
2022/07/10 05:23:12;;;;;;;1.10;0.60;;;18.50;96.10;;;;;;5099478;28;20642;-61
2022/07/10 05:25:40;;;;;;;1.05;0.60;;;18.50;96.10;;;;;;5102049;28;20225;-60
2022/07/10 05:28:07;;;;;;;1.02;0.80;;;18.50;96.10;;;;;;5108994;28;20252;-59
2022/07/10 05:30:34;;;;;;;0.65;0.65;;;18.50;96.20;;;;;;5110043;28;20223;-59
2022/07/10 05:33:01;;;;;;;0.70;0.70;;;18.50;96.20;;;;;;5107178;28;20227;-58
2022/07/10 05:35:29;;;;;;;0.65;0.60;;;18.60;96.30;;;;;;5104942;28;20208;-58
2022/07/10 05:37:56;;;;;;;0.60;0.60;;;18.60;96.30;;;;;;5103598;28;20274;-59
2022/07/10 05:40:24;;;;;;;2.88;0.73;;;18.60;96.30;;;;;;5109557;28;20199;-57
2022/07/10 05:42:51;;;;;;;2.50;0.73;;;18.60;96.70;;;;;;5107190;28;20651;-58
2022/07/10 05:45:19;;;;;;;1.65;0.60;;;18.60;96.30;;;;;;5109323;28;20195;-58
2022/07/10 05:47:46;;;;;;;0.70;0.70;;;18.60;96.50;;;;;;5109869;28;20222;-59
2022/07/10 05:50:13;;;;;;;0.50;0.50;;;18.70;96.20;;;;;;5098990;28;20191;-59
2022/07/10 05:52:42;;;;;;;0.70;0.70;;;18.70;96.20;;;;;;5109980;28;20220;-59
2022/07/10 05:55:09;;;;;;;0.77;0.70;;;18.70;96.20;;;;;;5109087;28;20195;-59
2022/07/10 05:57:36;;;;;;;3.20;0.85;;;18.70;96.10;;;;;;5108092;28;20267;-60
2022/07/10 06:00:05;;;;;;;0.50;0.50;;;18.80;96.20;;;;;;5108191;28;20196;-60
2022/07/10 06:02:38;;;;;;;0.77;0.60;;;18.70;96.10;;;;;;5102252;28;20219;-59
2022/07/10 06:05:06;;;;;;;1.45;0.70;;;18.70;96.20;;;;;;5109342;28;20192;-60
2022/07/10 06:07:34;;;;;;;1.10;0.70;;;18.80;96.20;;;;;;5108977;28;20218;-60
2022/07/10 06:10:03;;;;;;;0.80;0.80;;;18.80;96.10;;;;;;5106716;28;20200;-60
2022/07/10 06:12:30;;;;;;;0.90;0.70;;;18.90;96.10;;;;;;5109045;28;20191;-60
2022/07/10 06:14:57;;;;;;;0.73;0.60;;;18.90;96.00;;;;;;5108497;28;20227;-60
2022/07/10 06:17:24;;;;;;;1.00;0.40;;;18.90;96.00;;;;;;5107411;28;20219;-61
2022/07/10 06:19:51;;;;;;;1.13;0.73;;;18.90;96.10;;;;;;5107014;28;20215;-60
2022/07/10 06:22:33;;;;;;;1.17;0.70;;;18.90;96.10;;;;;;5109508;28;20298;-60
2022/07/10 06:25:03;;;;;;;0.68;0.60;;;18.90;96.10;;;;;;5108267;28;20191;-60
2022/07/10 06:27:31;;;;;;;1.40;0.77;;;18.90;96.20;;;;;;5105153;28;20264;-60
2022/07/10 06:29:58;;;;;;;1.23;0.73;;;18.90;96.30;;;;;;5108832;28;20514;-61
2022/07/10 06:32:26;;;;;;;0.90;0.77;;;18.90;96.40;;;;;;5109253;28;20687;-61
2022/07/10 06:34:53;;;;;;;0.70;0.70;;;18.90;96.50;;;;;;5108667;28;20287;-60
2022/07/10 06:37:20;;;;;;;0.80;0.70;;;18.90;96.40;;;;;;5109240;28;20270;-62
2022/07/10 06:39:48;;;;;;;0.68;0.68;;;18.90;96.40;;;;;;5107973;28;20207;-60
2022/07/10 06:42:17;;;;;;;0.80;0.40;;;18.90;96.40;;;;;;5093161;28;20295;-60
2022/07/10 06:44:49;;;;;;;0.63;0.60;;;18.90;96.80;;;;;;5105076;28;20219;-59
2022/07/10 06:50:04;;;;;;;0.77;0.77;;;19.00;96.50;;;;;;5105933;28;20223;-60
2022/07/10 06:52:32;;;;;;;1.15;0.65;;;19.00;96.50;;;;;;5100509;28;20188;-60
2022/07/10 06:55:00;;;;;;;4.45;1.08;;;19.00;96.40;;;;;;5109468;28;20673;-60
2022/07/10 06:57:28;;;;;;;0.68;0.60;;;19.00;96.40;;;;;;5113383;28;20671;-60
2022/07/10 06:59:55;;;;;;;1.70;0.90;;;19.10;96.50;;;;;;5110943;28;20312;-59
2022/07/10 07:02:22;;;;;;;1.02;0.90;;;19.10;96.50;;;;;;5112765;28;20207;-60
2022/07/10 07:04:49;;;;;;;1.48;0.73;;;19.10;96.40;;;;;;5112727;28;20220;-60
2022/07/10 07:07:17;;;;;;;0.52;0.50;;;19.10;96.50;;;;;;5113079;28;20226;-60
2022/07/10 07:09:44;;;;;;;2.90;0.90;;;19.10;96.50;;;;;;5110640;28;20202;-60
2022/07/10 07:12:12;;;;;;;2.60;0.85;;;19.00;96.50;;;;;;5113207;28;20632;-60
2022/07/10 07:14:40;;;;;;;1.15;0.80;;;19.10;96.60;;;;;;5096194;28;20228;-59
2022/07/10 07:17:09;;;;;;;2.58;0.93;;;19.10;96.60;;;;;;5108648;28;20244;-59
2022/07/10 07:25:06;;;;;;;1.23;1.00;;;19.10;96.80;;;;;;5111756;28;20324;-60
2022/07/10 07:27:34;;;;;;;2.15;0.80;;;19.20;96.40;;;;;;5112389;28;20316;-58
2022/07/10 07:30:10;;;;;;;1.30;0.93;;;19.30;96.30;;;;;;5109750;28;20192;-59
2022/07/10 07:32:38;;;;;;;0.93;0.50;;;19.30;96.20;;;;;;5110079;28;20187;-59
2022/07/10 07:35:06;;;;;;;1.40;0.80;;;19.40;96.20;;;;;;5106448;28;20193;-59
2022/07/10 07:37:38;;;;;;;1.30;0.70;;;19.40;96.10;;;;;;5105280;28;20196;-60
2022/07/10 07:40:07;;;;;;;1.13;0.93;;;19.40;96.10;;;;;;5109450;28;20200;-60
2022/07/10 07:42:34;;;;;;;0.93;0.60;;;19.50;96.10;;;;;;5103813;28;20210;-59
2022/07/10 07:45:01;;;;;;;2.30;0.85;;;19.50;96.00;;;;;;5103759;28;20224;-59
2022/07/10 07:47:30;;;;;;;0.73;0.73;;;19.60;95.90;;;;;;5106185;28;20199;-59
2022/07/10 07:49:57;;;;;;;7.63;0.98;;;19.60;95.80;;;;;;5103771;28;20261;-59
2022/07/10 07:52:24;;;;;;;0.82;0.50;;;19.70;95.70;;;;;;5109769;28;20192;-59
2022/07/10 07:54:51;;;;;;;1.10;0.70;;;19.80;95.70;;;;;;5106192;28;20728;-59
2022/07/10 07:57:18;;;;;;;1.50;1.15;;;19.90;95.70;;;;;;5112470;28;20231;-58
2022/07/10 07:59:45;;;;;;;0.50;0.47;;;19.90;95.60;;;;;;5103852;28;20182;-59
2022/07/10 08:02:13;;;;;;;1.27;0.52;;;19.90;95.60;;;;;;5104215;28;20223;-59
2022/07/10 08:04:41;;;;;;;0.93;0.63;;;20.00;95.60;;;;;;5106811;28;20635;-66
2022/07/10 08:07:08;;;;;;;1.33;0.90;;;20.10;95.60;;;;;;5107699;28;20214;-64
2022/07/10 08:09:35;;;;;;;2.20;1.17;;;20.10;95.60;;;;;;5109776;28;20741;-67
2022/07/10 08:12:03;;;;;;;1.23;0.77;;;20.20;95.40;;;;;;5108806;28;20211;-66
2022/07/10 08:14:30;;;;;;;1.20;0.80;;;20.20;95.20;;;;;;5108669;28;20249;-67
2022/07/10 08:16:57;;;;;;;0.80;0.70;;;20.20;95.00;;;;;;5110396;28;20196;-66
2022/07/10 08:19:24;;;;;;;1.58;1.00;;;20.20;95.20;;;;;;5111081;28;20607;-66
2022/07/10 08:21:53;;;;;;;2.03;0.80;;;20.20;95.00;;;;;;5109025;28;20188;-66
2022/07/10 08:24:20;;;;;;;0.75;0.70;;;20.20;95.00;;;;;;5108112;28;20267;-65
2022/07/10 08:26:47;;;;;;;0.70;0.60;;;20.10;94.90;;;;;;5107387;28;20566;-65
2022/07/10 08:29:15;;;;;;;0.55;0.55;;;20.10;95.00;;;;;;5096422;28;20215;-66
2022/07/10 08:31:42;;;;;;;0.60;0.60;;;20.00;95.00;;;;;;5111178;28;20248;-67
2022/07/10 08:34:09;;;;;;;0.50;0.50;;;20.00;95.00;;;;;;5102801;28;20202;-69
2022/07/10 08:36:36;;;;;;;0.40;0.40;;;20.00;95.10;;;;;;5111359;28;20203;-68
2022/07/10 08:39:04;;;;;;;0.70;0.70;;;19.90;95.30;;;;;;5107658;27;20204;-64
2022/07/10 08:41:34;;;;;;;0.90;0.50;;;19.90;95.60;;;;;;5110969;28;20223;-64
2022/07/10 08:44:01;;;;;;;0.88;0.50;;;19.90;95.80;;;;;;5103958;28;20219;-64
2022/07/10 08:46:30;;;;;;;0.50;0.50;;;19.80;96.00;;;;;;5111862;28;20188;-64
2022/07/10 08:49:01;;;;;;;0.60;0.60;;;19.80;96.30;;;;;;5110812;28;20200;-64
2022/07/10 08:51:37;;;;;;;0.60;0.60;;;19.80;96.50;;;;;;5104069;28;20227;-63
2022/07/10 08:54:07;;;;;;;0.70;0.60;;;19.80;96.60;;;;;;5105490;28;20258;-64
2022/07/10 08:56:35;;;;;;;0.50;0.50;;;19.80;96.70;;;;;;5101869;28;20283;-64
2022/07/10 08:59:04;;;;;;;0.55;0.55;;;19.80;96.70;;;;;;5109997;28;20283;-64
2022/07/10 09:01:32;;;;;;;0.73;0.73;;;19.80;96.80;;;;;;5106310;28;20226;-64
2022/07/10 09:03:59;;;;;;;0.80;0.60;;;19.80;96.80;;;;;;5101745;28;20303;-64
2022/07/10 09:06:28;;;;;;;0.73;0.73;;;19.90;97.20;;;;;;5107540;28;20268;-64
2022/07/10 09:09:00;;;;;;;0.70;0.70;;;19.90;96.90;;;;;;5107880;28;20268;-64
2022/07/10 09:11:30;;;;;;;1.73;0.70;;;20.00;97.00;;;;;;5110721;28;20203;-64
2022/07/10 09:13:59;;;;;;;1.33;0.90;;;20.00;97.00;;;;;;5110196;28;20288;-64
2022/07/10 09:16:27;;;;;;;0.80;0.80;;;20.10;97.00;;;;;;5104383;28;20622;-64
2022/07/10 09:18:55;;;;;;;0.80;0.55;;;20.20;97.10;;;;;;5102314;28;20203;-64
2022/07/10 09:21:22;;;;;;;0.63;0.60;;;20.30;97.10;;;;;;5106621;28;20248;-64
2022/07/10 09:23:49;;;;;;;0.68;0.60;;;20.40;97.00;;;;;;5107594;28;20216;-64
2022/07/10 09:26:18;;;;;;;0.70;0.70;;;20.50;97.00;;;;;;5110727;28;20195;-64
2022/07/10 09:28:47;;;;;;;2.22;0.80;;;20.50;97.00;;;;;;5103530;28;20667;-63
2022/07/10 09:31:14;;;;;;;0.60;0.60;;;20.60;97.10;;;;;;5102890;28;20193;-64
2022/07/10 09:33:41;;;;;;;1.27;0.88;;;20.70;97.00;;;;;;5105492;28;20309;-63
2022/07/10 09:36:10;;;;;;;0.95;0.68;;;20.60;96.90;;;;;;5109098;28;20604;-64
2022/07/10 09:38:57;;;;;;;0.60;0.60;;;20.70;96.90;;;;;;5104882;28;20207;-63
2022/07/10 09:41:26;;;;;;;0.60;0.60;;;20.80;97.00;;;;;;5102323;28;20268;-64
2022/07/10 09:43:56;;;;;;;1.77;0.90;;;20.80;96.50;;;;;;5102697;28;20226;-64
2022/07/10 09:46:25;;;;;;;1.08;0.98;;;20.90;96.10;;;;;;5105457;28;20198;-63
2022/07/10 09:49:09;;;;;;;1.10;0.98;;;20.90;95.80;;;;;;5105281;28;20249;-64
2022/07/10 09:51:39;;;;;;;0.80;0.80;;;21.00;95.50;;;;;;5105766;28;20192;-64
2022/07/10 09:54:08;;;;;;;1.02;0.82;;;21.10;95.40;;;;;;5101523;28;20192;-64
2022/07/10 09:56:41;;;;;;;1.40;0.85;;;21.20;94.90;;;;;;5106448;28;20203;-64
2022/07/10 09:59:13;;;;;;;3.80;0.93;;;21.30;94.30;;;;;;5105728;28;20204;-63
2022/07/10 10:01:46;;;;;;;1.27;0.85;;;21.40;93.90;;;;;;5103735;28;20188;-64
2022/07/10 10:04:14;;;;;;;0.95;0.77;;;21.40;93.40;;;;;;5103594;28;20226;-64
2022/07/10 10:06:42;;;;;;;1.40;1.00;;;21.40;93.10;;;;;;5104721;28;20577;-64
2022/07/10 10:09:13;;;;;;;1.40;0.90;;;21.40;92.90;;;;;;5103239;28;20203;-64
2022/07/10 10:11:44;;;;;;;0.80;0.80;;;21.40;92.70;;;;;;5104200;28;20215;-65
2022/07/10 10:14:16;;;;;;;0.50;0.50;;;21.40;92.50;;;;;;5098759;28;20286;-65
2022/07/10 10:16:45;;;;;;;1.27;0.80;;;21.40;92.50;;;;;;5105604;28;20196;-65
2022/07/10 10:21:59;;;;;;;3.70;0.88;;;21.40;92.30;;;;;;5102464;28;20203;-65
2022/07/10 10:24:27;;;;;;;0.60;0.60;;;21.30;91.90;;;;;;5092654;28;20312;-64
2022/07/10 10:26:55;;;;;;;3.03;0.85;;;21.20;91.70;;;;;;5104631;28;20199;-64
2022/07/10 10:29:23;;;;;;;2.08;1.08;;;21.20;91.60;;;;;;5104158;28;20688;-65
2022/07/10 10:31:51;;;;;;;1.05;0.80;;;21.20;91.40;;;;;;5105596;28;20225;-65
2022/07/10 10:34:41;;;;;;;1.25;0.98;;;21.20;90.70;;;;;;5094588;28;20827;-64
2022/07/10 10:37:36;;;;;;;1.45;1.02;;;21.10;89.90;;;;;;5104300;28;20222;-65
2022/07/10 10:40:05;;;;;;;0.70;0.70;;;21.10;89.00;;;;;;5095221;28;20283;-64
2022/07/10 10:42:37;;;;;;;0.60;0.60;;;21.10;88.80;;;;;;5104179;28;20214;-64
2022/07/10 10:45:27;;;;;;;1.17;0.75;;;21.20;89.40;;;;;;5105087;28;20686;-65
2022/07/10 10:48:05;;;;;;;1.02;0.70;;;21.20;88.70;;;;;;5105711;28;20671;-64
2022/07/10 10:50:39;;;;;;;0.65;0.65;;;21.10;89.90;;;;;;5104829;28;20187;-64
2022/07/10 10:53:13;;;;;;;0.60;0.60;;;21.10;90.40;;;;;;5104242;28;20190;-64
2022/07/10 10:55:41;;;;;;;1.15;0.95;;;21.00;90.80;;;;;;5101684;28;20196;-64
2022/07/10 10:58:15;;;;;;;3.85;3.15;;;21.00;91.30;;;;;;5105131;28;20231;-64
2022/07/10 11:00:44;;;;;;;2.60;2.40;;;20.90;91.70;;;;;;5105113;28;20665;-65
2022/07/10 11:03:19;;;;;;;1.85;1.75;;;20.90;92.10;;;;;;5103664;28;20701;-65
2022/07/10 11:05:48;;;;;;;2.65;1.58;;;20.80;92.30;;;;;;5090011;28;20292;-65
2022/07/10 11:08:35;;;;;;;3.50;1.55;;;20.80;92.60;;;;;;5105188;28;20211;-64
2022/07/10 11:11:23;;;;;;;1.63;0.98;;;20.80;93.00;;;;;;5105194;28;20230;-64
2022/07/10 11:13:51;;;;;;;1.17;0.85;;;20.70;93.20;;;;;;5094383;28;20195;-65
2022/07/10 11:16:19;;;;;;;1.60;0.80;;;20.80;92.20;;;;;;5104948;28;20651;-65
2022/07/10 11:18:53;;;;;;;1.10;0.80;;;20.70;91.70;;;;;;5105316;28;20237;-65
2022/07/10 11:21:25;;;;;;;0.98;0.80;;;20.80;90.90;;;;;;5096220;28;20647;-63
2022/07/10 11:23:59;;;;;;;2.22;0.82;;;20.80;90.60;;;;;;5093277;28;20299;-64
2022/07/10 11:26:36;;;;;;;0.70;0.70;;;20.90;89.90;;;;;;5103485;28;20283;-64
2022/07/10 11:29:06;;;;;;;1.77;0.80;;;20.90;89.20;;;;;;5101765;28;20264;-63
2022/07/10 11:31:39;;;;;;;1.65;0.80;;;20.90;89.00;;;;;;5094799;28;20666;-63
2022/07/10 11:34:06;;;;;;;0.90;0.65;;;20.90;89.90;;;;;;5103903;28;20195;-63
2022/07/10 11:36:33;;;;;;;2.58;1.00;;;20.90;89.20;;;;;;5104434;28;20199;-64
2022/07/10 11:39:02;;;;;;;1.65;1.05;;;20.90;88.90;;;;;;5100423;28;20188;-64
2022/07/10 11:41:30;;;;;;;1.20;0.77;;;21.00;88.80;;;;;;5103519;28;20279;-63
2022/07/10 11:43:58;;;;;;;2.95;0.90;;;21.10;87.80;;;;;;5106494;28;20314;-65
2022/07/10 11:46:29;;;;;;;1.85;1.23;;;21.20;87.20;;;;;;5108548;28;20207;-64
2022/07/10 11:48:58;;;;;;;1.73;1.42;;;21.30;87.20;;;;;;5106019;28;20208;-64
2022/07/10 11:51:27;;;;;;;1.67;0.82;;;21.30;86.90;;;;;;5089596;28;20315;-64
2022/07/10 11:53:59;;;;;;;1.00;0.73;;;21.40;86.70;;;;;;5092317;28;20205;-64
2022/07/10 11:56:27;;;;;;;0.73;0.73;;;21.40;86.20;;;;;;5107011;28;20548;-64
2022/07/10 11:58:59;;;;;;;1.65;0.80;;;21.40;85.50;;;;;;5108436;28;20220;-64
2022/07/10 12:01:26;;;;;;;1.30;0.80;;;21.40;84.90;;;;;;5107867;28;20198;-64
2022/07/10 12:03:59;;;;;;;0.75;0.68;;;21.40;84.60;;;;;;5107318;28;20222;-64
2022/07/10 12:06:27;;;;;;;2.67;0.80;;;21.40;84.50;;;;;;5108658;28;20319;-65
2022/07/10 12:08:55;;;;;;;0.70;0.70;;;21.50;84.50;;;;;;5097793;28;20273;-63
2022/07/10 12:11:23;;;;;;;2.15;0.70;;;21.40;85.30;;;;;;5108627;28;20195;-65
2022/07/10 12:13:51;;;;;;;0.47;0.47;;;21.40;86.90;;;;;;5101126;28;20643;-64
2022/07/10 12:16:19;;;;;;;0.60;0.60;;;21.30;87.70;;;;;;5092146;28;20700;-64
2022/07/10 12:18:47;;;;;;;0.65;0.57;;;21.20;88.50;;;;;;5103148;28;20264;-64
2022/07/10 12:21:16;;;;;;;1.05;0.47;;;21.20;89.60;;;;;;5093212;28;20192;-64
2022/07/10 12:23:46;;;;;;;0.40;0.40;;;21.10;90.00;;;;;;5103218;28;20204;-65
2022/07/10 12:26:14;;;;;;;0.60;0.60;;;21.20;90.30;;;;;;5108101;28;20203;-64
2022/07/10 12:28:59;;;;;;;1.17;0.57;;;21.20;90.50;;;;;;5102245;28;20192;-65
2022/07/10 12:31:28;;;;;;;2.83;1.50;;;21.20;90.60;;;;;;5105499;28;20210;-65
2022/07/10 12:33:57;;;;;;;1.90;1.30;;;21.10;90.80;;;;;;5103286;28;20211;-64
2022/07/10 12:36:26;;;;;;;1.05;0.90;;;21.10;90.80;;;;;;5091049;28;20267;-64
2022/07/10 12:38:55;;;;;;;0.70;0.70;;;21.20;90.70;;;;;;5103834;28;20303;-65
2022/07/10 12:41:24;;;;;;;1.40;0.73;;;21.30;90.60;;;;;;5108045;28;20195;-65
2022/07/10 12:43:52;;;;;;;1.17;0.95;;;21.40;90.40;;;;;;5106568;28;20338;-65
2022/07/10 12:46:20;;;;;;;3.83;0.82;;;21.40;90.10;;;;;;5106717;28;20200;-65
2022/07/10 12:49:03;;;;;;;1.40;0.85;;;21.40;89.90;;;;;;5105138;28;20340;-65
2022/07/10 12:51:34;;;;;;;1.17;0.60;;;21.30;89.00;;;;;;5097405;28;20888;-65
2022/07/10 12:54:01;;;;;;;3.03;0.80;;;21.20;89.00;;;;;;5100487;28;20245;-65
2022/07/10 12:56:38;;;;;;;0.90;0.70;;;21.20;89.10;;;;;;5107730;28;20219;-66
2022/07/10 12:59:13;;;;;;;0.70;0.70;;;21.20;88.70;;;;;;5105489;28;20279;-66
2022/07/10 13:01:42;;;;;;;1.42;0.88;;;21.20;88.50;;;;;;5107403;28;20586;-65
2022/07/10 13:04:09;;;;;;;2.33;0.70;;;21.20;87.80;;;;;;5106457;28;20223;-63
2022/07/10 13:06:40;;;;;;;1.42;0.60;;;21.20;87.20;;;;;;5105528;28;20282;-64
2022/07/10 13:09:25;;;;;;;0.60;0.60;;;21.20;86.40;;;;;;5100701;28;20196;-64
2022/07/10 13:11:54;;;;;;;2.95;0.80;;;21.20;85.60;;;;;;5107259;28;20192;-64